OLBO2: North Canadian River

Data processed at Sat Aug 19 2017 23:04


All information presented herein is the property of the government of the United States of America and may be revised or deleted at any time without prior notice.
Dissemination of this information without the expressed written consent of the Public Affairs Office, Tulsa District U.S. Army Corps of Engineers is strictly prohibited.
These data are gathered electronically and, as presented, have not undergone any form of quality control. These data are not guaranteed to be valid or correct.
Go to home page.
Go to station list.

Upstream stations:

Downstream station:
Previous Day
Next Day
Current Day
    
SHEF ID:       OLBO2     North Canadian River blw Lk Over
STATION TYPE:  

               PRECIP     STAGE  RIV-FLOW  WTR-TEMP   DIS-OXY   CONDUCT  BAT-LOAD
                   in        ft       cfs         F      mg/l   umho/cm      volt
              Ccp-Rev   Ccp-Rev   Ccp-Rev   Ccp-Rev   Ccp-Rev   Ccp-Rev   Ccp-Rev
(US/Central)
08/19 00:00      0.00      4.99        43     80.78      7.31       479     12.57
08/19 01:00      0.00      4.99        43     80.83      7.29       485     12.49
08/19 02:00      0.00      4.97        42     80.98      7.27       480     12.49
08/19 03:00      0.00      4.97        42     81.03      7.25       498     12.49
08/19 04:00      0.00      4.94        39     81.01      7.22       500     12.41
08/19 05:00      0.00      4.94        39     80.96      7.19       510     12.41
08/19 06:00      0.00      4.94        39     80.91      7.18       512     12.41
08/19 07:00      0.00      4.94        39     80.87      7.17       516     12.41
08/19 08:00      0.00      4.95        40     80.91      7.17       520     12.41
08/19 09:00      0.00      4.93        39     81.07      7.22       521     12.41
08/19 10:00      0.00      4.93        39     81.79      7.44       528     12.49
08/19 11:00      0.00      4.90        37     82.56      7.63       527     12.49
08/19 12:00      0.00      4.92        38     83.28      7.76       528     12.97
08/19 13:00      0.00      4.91        38     83.80      7.87       528     13.29
08/19 14:00      0.00      4.91        38     84.20      7.97       527     13.21
08/19 15:00      0.00      4.92        38     84.40      8.03       534     12.81
08/19 16:00      0.00      4.92        38     84.31      8.03       552     12.73
08/19 17:00      0.00      4.92        38     83.84      7.90       563     12.73
08/19 18:00      0.00      4.91        38     83.23      7.73       566     12.65
08/19 19:00      0.00      4.91        38     82.65      7.52       568     12.73
08/19 20:00      0.00      4.93        39     82.40      7.35       578     12.73
08/19 21:00      0.00      4.91        38     82.26      7.23       572     12.57
08/19 22:00      ----      ----      ----      ----      ----      ----      ----
08/19 23:00      ----      ----      ----      ----      ----      ----      ----